Time;durP1;ratioP1;P1;durP2;ratioP2;P2;SDS_P1;SDS_P2;PMS_P1;PMS_P2;Temp;Humidity;BMP_temperature;BMP_pressure;BME280_temperature;BME280_humidity;BME280_pressure;Samples;Min_cycle;Max_cycle;Signal;HPM_P1;HPM_P2
2022/06/22 00:01:42;;;;;;;17.37;15.53;;;18.00;99.90;19.60;96535.00;;;;5085379;28;20195;-65
2022/06/22 00:04:38;;;;;;;18.17;15.63;;;18.20;99.90;19.60;96549.00;;;;5086243;28;20230;-66
2022/06/22 00:07:31;;;;;;;24.13;14.97;;;18.30;99.90;19.70;96542.00;;;;5084312;28;20231;-65
2022/06/22 00:10:24;;;;;;;20.97;14.80;;;18.30;99.90;19.70;96540.00;;;;5087992;28;20191;-66
2022/06/22 00:13:18;;;;;;;19.43;14.13;;;18.10;99.90;19.70;96541.00;;;;5088009;28;20669;-65
2022/06/22 00:16:17;;;;;;;20.37;14.80;;;18.10;99.90;19.50;96549.00;;;;5089677;28;20227;-66
2022/06/22 00:19:28;;;;;;;21.03;14.07;;;18.10;99.90;19.60;96532.00;;;;5088056;28;20294;-65
2022/06/22 00:22:20;;;;;;;21.43;15.70;;;18.00;99.90;19.60;96533.00;;;;5088353;28;20257;-66
2022/06/22 00:25:15;;;;;;;18.80;15.07;;;18.10;99.90;19.70;96533.00;;;;5088363;28;20227;-66
2022/06/22 00:28:28;;;;;;;22.37;14.73;;;18.20;99.90;19.70;96531.00;;;;5088353;28;20726;-65
2022/06/22 00:31:28;;;;;;;18.87;14.93;;;18.30;99.90;19.70;96535.00;;;;5079612;28;20211;-66
2022/06/22 00:34:22;;;;;;;20.57;14.80;;;18.20;99.90;19.60;96544.00;;;;5088639;28;20223;-65
2022/06/22 00:37:18;;;;;;;18.90;14.73;;;18.30;99.90;19.50;96541.00;;;;5088023;28;20211;-66
2022/06/22 00:40:16;;;;;;;23.53;17.47;;;18.10;99.90;19.40;96553.00;;;;5089033;28;20497;-66
2022/06/22 00:43:06;;;;;;;24.60;15.03;;;18.10;99.90;19.60;96537.00;;;;5087729;28;20341;-66
2022/06/22 00:45:58;;;;;;;17.33;14.03;;;18.10;99.90;19.70;96531.00;;;;5087693;28;20215;-66
2022/06/22 00:48:49;;;;;;;19.43;15.20;;;18.10;99.90;19.80;96531.00;;;;5087298;28;20585;-66
2022/06/22 00:51:41;;;;;;;20.47;13.87;;;18.20;99.90;19.80;96535.00;;;;5088779;28;20203;-66
2022/06/22 00:54:33;;;;;;;19.27;13.07;;;18.10;99.90;19.80;96547.00;;;;5088552;28;20219;-66
2022/06/22 00:57:29;;;;;;;17.70;12.87;;;18.00;99.90;19.80;96547.00;;;;5088082;28;20207;-66
2022/06/22 01:00:22;;;;;;;19.00;13.53;;;18.10;99.90;19.80;96552.00;;;;5088104;28;20226;-66
2022/06/22 01:03:20;;;;;;;18.27;14.27;;;18.20;99.90;19.70;96561.00;;;;5074654;28;20222;-66
2022/06/22 01:06:17;;;;;;;17.47;13.13;;;18.00;99.90;19.70;96551.00;;;;5090275;28;20237;-66
2022/06/22 01:09:15;;;;;;;19.00;14.07;;;18.20;99.90;19.80;96550.00;;;;5092235;28;20199;-66
2022/06/22 01:12:25;;;;;;;19.27;15.57;;;18.20;99.90;19.80;96545.00;;;;5092675;28;20199;-66
2022/06/22 01:15:23;;;;;;;20.97;14.40;;;18.30;99.90;19.80;96551.00;;;;5092373;28;20221;-66
2022/06/22 01:18:18;;;;;;;17.17;13.73;;;18.20;99.90;19.80;96545.00;;;;5091402;28;20211;-66
2022/06/22 01:21:19;;;;;;;15.97;12.40;;;18.10;99.90;19.80;96553.00;;;;5079432;28;20195;-66
2022/06/22 01:24:21;;;;;;;17.00;14.20;;;18.30;99.90;19.60;96550.00;;;;5092424;28;20199;-66
2022/06/22 01:27:32;;;;;;;19.17;14.43;;;18.20;99.90;19.40;96547.00;;;;5093452;27;20223;-66
2022/06/22 01:30:29;;;;;;;19.60;14.33;;;18.20;99.90;19.60;96562.00;;;;5089833;28;20211;-66
2022/06/22 01:33:25;;;;;;;18.47;14.70;;;18.30;99.90;19.50;96556.00;;;;5091497;28;20211;-66
2022/06/22 01:36:22;;;;;;;18.87;14.40;;;18.10;99.90;19.50;96552.00;;;;5092415;28;20219;-66
2022/06/22 01:39:14;;;;;;;20.77;13.27;;;18.00;99.90;19.70;96567.00;;;;5079752;28;20203;-66
2022/06/22 01:42:09;;;;;;;22.50;15.07;;;18.00;99.90;19.70;96562.00;;;;5090937;28;20203;-66
2022/06/22 01:45:05;;;;;;;21.27;16.40;;;18.00;99.90;19.80;96556.00;;;;5092734;28;20606;-66
2022/06/22 01:48:02;;;;;;;14.67;13.10;;;18.10;99.90;19.80;96549.00;;;;5090780;28;20223;-66
2022/06/22 01:50:56;;;;;;;18.70;14.30;;;18.10;99.90;19.80;96549.00;;;;5090114;28;20207;-66
2022/06/22 01:53:51;;;;;;;18.40;13.93;;;18.10;99.90;19.80;96545.00;;;;5080542;28;20215;-66
2022/06/22 01:56:45;;;;;;;20.57;12.93;;;18.20;99.90;19.80;96544.00;;;;5091012;28;20203;-66
2022/06/22 01:59:41;;;;;;;17.90;13.63;;;18.10;99.90;19.80;96541.00;;;;5091257;28;20203;-66
2022/06/22 02:02:37;;;;;;;20.93;13.43;;;18.10;99.90;19.80;96533.00;;;;5090965;28;20203;-66
2022/06/22 02:05:33;;;;;;;18.17;13.10;;;18.10;99.90;19.80;96541.00;;;;5092564;28;20227;-66
2022/06/22 02:08:27;;;;;;;19.50;11.97;;;18.20;99.90;19.70;96545.00;;;;5079773;28;20725;-66
2022/06/22 02:11:23;;;;;;;17.43;14.03;;;18.20;99.90;19.60;96545.00;;;;5090463;28;20211;-66
2022/06/22 02:14:17;;;;;;;15.30;12.20;;;18.20;99.90;19.50;96544.00;;;;5091831;28;20227;-66
2022/06/22 02:17:08;;;;;;;15.47;13.77;;;18.20;99.90;19.40;96547.00;;;;5090213;28;20202;-66
2022/06/22 02:20:35;;;;;;;20.53;15.17;;;18.00;99.90;19.50;96546.00;;;;5090353;28;20210;-66
2022/06/22 02:23:29;;;;;;;17.37;12.53;;;17.90;99.90;19.50;96545.00;;;;5091847;28;20197;-66
2022/06/22 02:26:25;;;;;;;17.73;14.13;;;18.00;99.90;19.60;96556.00;;;;5091440;28;20203;-66
2022/06/22 02:29:17;;;;;;;18.17;13.37;;;18.10;99.90;19.70;96556.00;;;;5090771;28;20580;-66
2022/06/22 02:32:12;;;;;;;17.77;13.00;;;18.00;99.90;19.70;96547.00;;;;5088538;28;20211;-66
2022/06/22 02:35:02;;;;;;;16.00;13.43;;;18.00;99.90;19.50;96553.00;;;;5090198;28;20227;-66
2022/06/22 02:38:00;;;;;;;18.70;13.87;;;18.10;99.90;19.50;96558.00;;;;5090719;28;20203;-66
2022/06/22 02:47:21;;;;;;;16.27;13.27;;;17.90;99.90;19.60;96550.00;;;;5090939;28;20223;-66
2022/06/22 02:50:19;;;;;;;14.63;12.67;;;18.10;99.90;19.70;96546.00;;;;5081182;28;20202;-66
2022/06/22 02:53:22;;;;;;;18.53;12.80;;;18.00;99.90;19.70;96546.00;;;;5089790;28;20206;-66
2022/06/22 02:56:17;;;;;;;19.93;13.97;;;18.00;99.90;19.50;96542.00;;;;5089374;28;20223;-66
2022/06/22 02:59:07;;;;;;;17.60;13.00;;;18.00;99.90;19.40;96545.00;;;;5089297;28;20670;-66
2022/06/22 03:01:56;;;;;;;20.17;14.53;;;18.00;99.90;19.10;96537.00;;;;5090173;28;20198;-66
2022/06/22 03:04:47;;;;;;;24.40;13.30;;;17.90;99.90;19.30;96543.00;;;;5089148;28;20234;-66
2022/06/22 03:07:39;;;;;;;16.97;14.53;;;17.90;99.90;19.40;96549.00;;;;5089397;28;20632;-66
2022/06/22 03:10:48;;;;;;;15.53;12.73;;;18.00;99.90;19.40;96554.00;;;;5077895;28;20670;-66
2022/06/22 03:13:44;;;;;;;18.43;13.47;;;17.80;99.90;19.20;96544.00;;;;5088941;28;20195;-65
2022/06/22 03:16:39;;;;;;;19.93;13.23;;;17.80;99.90;18.90;96552.00;;;;5090777;28;20920;-66
2022/06/22 03:19:38;;;;;;;20.13;13.53;;;17.80;99.90;19.00;96552.00;;;;5079750;28;20215;-66
2022/06/22 03:22:37;;;;;;;19.63;15.40;;;17.80;99.90;19.20;96553.00;;;;5089505;28;20207;-65
2022/06/22 03:25:43;;;;;;;17.70;13.70;;;18.00;99.90;19.40;96550.00;;;;5089536;28;20219;-66
2022/06/22 03:28:37;;;;;;;18.33;13.83;;;17.90;99.90;19.40;96553.00;;;;5088665;28;20223;-66
2022/06/22 03:31:33;;;;;;;19.80;13.10;;;17.80;99.90;19.40;96561.00;;;;5075788;28;20206;-65
2022/06/22 03:34:34;;;;;;;17.33;14.20;;;17.70;99.90;19.50;96555.00;;;;5089879;28;20238;-65
2022/06/22 03:37:29;;;;;;;14.57;12.67;;;17.90;99.90;19.50;96565.00;;;;5088504;28;20195;-66
2022/06/22 03:40:24;;;;;;;15.83;13.70;;;17.90;99.90;19.60;96564.00;;;;5089472;28;20238;-66
2022/06/22 03:43:21;;;;;;;16.10;13.17;;;17.90;99.90;19.70;96558.00;;;;5087244;28;20219;-66
2022/06/22 03:46:15;;;;;;;20.97;13.00;;;17.90;99.90;19.70;96557.00;;;;5089561;28;20230;-66
2022/06/22 03:49:12;;;;;;;14.13;12.20;;;17.90;99.90;19.70;96569.00;;;;5088756;28;20237;-65
2022/06/22 03:52:09;;;;;;;16.73;12.07;;;17.90;99.90;19.70;96583.00;;;;5088399;28;20561;-66
2022/06/22 03:55:02;;;;;;;17.63;12.83;;;17.80;99.90;19.70;96582.00;;;;5079560;28;20222;-66
2022/06/22 03:57:55;;;;;;;18.67;12.37;;;18.10;99.90;19.60;96609.00;;;;5075828;28;20214;-66
2022/06/22 04:00:46;;;;;;;16.03;12.63;;;18.40;99.90;19.60;96607.00;;;;5085403;28;20326;-66
2022/06/22 04:03:36;;;;;;;14.27;11.73;;;18.00;99.90;19.70;96623.00;;;;5079408;28;20796;-66
2022/06/22 04:06:31;;;;;;;15.07;11.50;;;18.00;99.90;19.60;96626.00;;;;5085465;28;20215;-66
2022/06/22 04:09:24;;;;;;;17.27;14.00;;;18.20;99.90;19.70;96631.00;;;;5087293;28;20287;-65
2022/06/22 04:12:21;;;;;;;14.83;12.77;;;18.10;99.90;19.80;96619.00;;;;5098054;28;20891;-66
2022/06/22 04:15:26;;;;;;;15.57;13.93;;;18.10;99.90;19.90;96613.00;;;;5096238;28;20222;-66
2022/06/22 04:18:22;;;;;;;26.60;13.23;;;18.10;99.90;19.80;96618.00;;;;5088004;28;20203;-66
2022/06/22 04:21:16;;;;;;;16.23;14.07;;;18.00;99.90;19.50;96614.00;;;;5077439;28;20577;-66
2022/06/22 04:24:14;;;;;;;15.63;12.37;;;18.20;99.90;19.40;96601.00;;;;5088239;28;20195;-66
2022/06/22 04:27:11;;;;;;;20.27;14.83;;;18.10;99.90;19.40;96586.00;;;;5088182;28;20195;-66
2022/06/22 04:30:06;;;;;;;17.57;15.40;;;18.30;99.90;19.50;96583.00;;;;5078674;28;20803;-66
2022/06/22 04:33:02;;;;;;;16.03;14.33;;;18.10;99.90;19.80;96574.00;;;;5090057;28;20199;-66
2022/06/22 04:36:00;;;;;;;19.03;12.97;;;18.10;99.90;19.90;96561.00;;;;5089553;28;20219;-66
2022/06/22 04:38:54;;;;;;;14.60;12.00;;;18.10;99.90;20.00;96567.00;;;;5087227;28;20215;-66
2022/06/22 04:41:44;;;;;;;14.90;11.10;;;18.20;99.90;20.10;96560.00;;;;5092238;28;20203;-67
2022/06/22 04:44:40;;;;;;;18.07;12.97;;;18.20;99.90;19.90;96558.00;;;;5093204;28;20237;-66
2022/06/22 04:47:34;;;;;;;16.20;12.77;;;18.30;99.90;20.00;96566.00;;;;5092732;28;20674;-66
2022/06/22 04:50:23;;;;;;;15.00;13.10;;;18.20;99.90;19.90;96560.00;;;;5088629;28;20974;-66
2022/06/22 04:53:20;;;;;;;16.87;14.40;;;18.30;99.90;19.70;96564.00;;;;5092600;28;20199;-66
2022/06/22 04:56:15;;;;;;;21.93;13.33;;;18.20;99.90;19.90;96568.00;;;;5091926;28;20234;-65
2022/06/22 04:59:08;;;;;;;17.40;13.47;;;18.20;99.90;20.10;96548.00;;;;5091894;28;20214;-65
2022/06/22 05:02:03;;;;;;;14.07;11.43;;;18.30;99.90;20.20;96538.00;;;;5091816;28;20670;-66
2022/06/22 05:04:55;;;;;;;17.43;12.57;;;18.50;99.90;20.30;96554.00;;;;5091164;28;20235;-65
2022/06/22 05:07:53;;;;;;;11.97;9.83;;;18.40;99.90;20.20;96569.00;;;;5092164;28;20306;-66
2022/06/22 05:10:49;;;;;;;14.13;10.90;;;18.50;99.90;20.20;96572.00;;;;5087929;28;20210;-65
2022/06/22 05:13:43;;;;;;;14.90;11.30;;;18.50;99.90;20.30;96578.00;;;;5094692;28;20210;-66
2022/06/22 05:16:34;;;;;;;15.57;11.73;;;18.60;99.90;19.80;96586.00;;;;5090286;28;20206;-66
2022/06/22 05:19:29;;;;;;;19.83;14.50;;;18.50;99.90;20.00;96590.00;;;;5082312;28;20206;-66
2022/06/22 05:22:19;;;;;;;20.00;14.43;;;18.60;99.90;20.00;96597.00;;;;5092682;28;20207;-66
2022/06/22 05:25:12;;;;;;;18.97;15.00;;;18.50;99.90;20.10;96596.00;;;;5091289;28;20226;-66
2022/06/22 05:28:08;;;;;;;17.17;14.23;;;18.60;99.90;20.10;96591.00;;;;5092173;28;20202;-65
2022/06/22 05:31:03;;;;;;;15.40;13.80;;;18.40;99.90;20.30;96598.00;;;;5079369;28;20207;-65
2022/06/22 05:33:56;;;;;;;20.60;14.93;;;18.50;99.90;20.50;96611.00;;;;5090074;28;20199;-65
2022/06/22 05:36:51;;;;;;;18.80;14.63;;;18.50;99.90;20.60;96601.00;;;;5091351;28;20229;-65
2022/06/22 05:39:41;;;;;;;19.13;14.03;;;18.60;99.90;20.70;96603.00;;;;5090768;28;20557;-65
2022/06/22 05:42:34;;;;;;;21.50;14.20;;;18.80;99.90;20.70;96609.00;;;;5091138;28;20200;-65
2022/06/22 05:45:28;;;;;;;19.23;13.50;;;18.90;99.90;20.80;96619.00;;;;5093086;28;20223;-65
2022/06/22 05:48:23;;;;;;;16.67;14.00;;;19.00;99.90;20.70;96599.00;;;;5090665;28;20195;-66
2022/06/22 05:51:19;;;;;;;16.27;13.00;;;19.00;99.90;20.80;96596.00;;;;5085921;28;20687;-65
2022/06/22 05:54:15;;;;;;;16.20;13.50;;;19.00;99.90;20.90;96603.00;;;;5092794;28;20203;-65
2022/06/22 05:57:17;;;;;;;16.30;13.90;;;19.00;99.90;20.80;96603.00;;;;5081186;28;20225;-65
2022/06/22 06:00:15;;;;;;;15.10;13.20;;;19.10;99.90;20.70;96600.00;;;;5089980;28;20207;-65
2022/06/22 06:03:13;;;;;;;18.63;14.17;;;19.10;99.90;20.60;96603.00;;;;5086373;28;20218;-65
2022/06/22 06:06:07;;;;;;;16.53;14.00;;;19.00;99.90;20.50;96604.00;;;;5088776;28;20264;-66
2022/06/22 06:08:59;;;;;;;17.90;13.00;;;19.10;99.90;20.70;96611.00;;;;5088321;28;20215;-66
2022/06/22 06:11:53;;;;;;;17.60;12.73;;;19.00;99.90;21.00;96614.00;;;;5080351;28;22078;-66
2022/06/22 06:14:47;;;;;;;26.10;12.03;;;19.50;99.90;21.00;96615.00;;;;5084496;28;20215;-66
2022/06/22 06:17:42;;;;;;;13.50;11.80;;;19.20;99.90;21.00;96609.00;;;;5080875;28;20685;-66
2022/06/22 06:20:38;;;;;;;13.43;10.50;;;19.10;99.90;21.10;96601.00;;;;5081516;28;20203;-66
2022/06/22 06:23:33;;;;;;;12.30;10.00;;;19.20;99.90;21.10;96602.00;;;;5082125;28;20203;-66
2022/06/22 06:29:49;;;;;;;14.97;10.57;;;19.20;99.90;21.40;96599.00;;;;5084023;28;20219;-66
2022/06/22 06:32:46;;;;;;;13.10;10.53;;;19.30;99.90;21.40;96598.00;;;;5080790;28;20195;-66
2022/06/22 06:35:47;;;;;;;11.93;10.20;;;19.30;99.90;21.40;96599.00;;;;5082561;28;20439;-66
2022/06/22 06:38:39;;;;;;;13.10;11.00;;;19.50;99.90;21.30;96603.00;;;;5083223;28;20572;-66
2022/06/22 06:41:36;;;;;;;16.53;11.57;;;19.60;99.90;21.30;96598.00;;;;5081215;28;20210;-66
2022/06/22 06:44:25;;;;;;;16.80;12.23;;;19.50;99.90;21.40;96597.00;;;;5089104;28;20230;-66
2022/06/22 06:47:17;;;;;;;18.90;11.87;;;19.50;99.90;21.30;96592.00;;;;5082726;28;20214;-66
2022/06/22 06:50:20;;;;;;;11.90;10.37;;;19.60;99.90;21.30;96588.00;;;;5083706;28;20233;-66
2022/06/22 06:53:24;;;;;;;12.07;10.80;;;19.60;99.90;21.30;96581.00;;;;5080785;28;20250;-66
2022/06/22 06:56:19;;;;;;;12.67;10.60;;;19.80;99.90;21.50;96582.00;;;;5085101;28;20561;-66
2022/06/22 06:59:14;;;;;;;11.23;10.00;;;19.60;99.90;21.50;96570.00;;;;5084238;28;20205;-66
2022/06/22 07:02:15;;;;;;;9.53;8.50;;;19.50;99.90;21.60;96579.00;;;;5084196;28;20206;-66
2022/06/22 07:05:07;;;;;;;12.37;8.67;;;19.70;99.90;21.70;96569.00;;;;5086854;28;20231;-66
2022/06/22 07:08:04;;;;;;;13.93;10.10;;;19.80;99.90;21.70;96562.00;;;;5085019;28;20199;-66
2022/06/22 07:11:15;;;;;;;10.33;9.23;;;19.80;99.90;21.80;96565.00;;;;5082217;28;20595;-66
2022/06/22 07:14:12;;;;;;;12.33;9.03;;;19.90;99.90;21.80;96581.00;;;;5087412;28;20206;-66
2022/06/22 07:17:09;;;;;;;11.07;9.97;;;19.80;99.90;20.90;96576.00;;;;5083729;28;20654;-66
2022/06/22 07:20:05;;;;;;;16.60;12.40;;;19.80;99.90;20.80;96571.00;;;;5084698;28;20586;-65
2022/06/22 07:23:00;;;;;;;20.57;11.77;;;19.60;99.90;20.90;96572.00;;;;5087675;28;20211;-66
2022/06/22 07:25:53;;;;;;;17.40;11.07;;;19.00;99.90;20.70;96570.00;;;;5087752;28;20219;-65
2022/06/22 07:28:52;;;;;;;13.60;9.73;;;19.50;99.90;20.90;96578.00;;;;5088876;28;20199;-65
2022/06/22 07:31:48;;;;;;;13.00;9.10;;;19.40;99.90;20.50;96594.00;;;;5089578;28;20670;-65
2022/06/22 07:34:42;;;;;;;11.17;8.87;;;19.40;99.90;20.60;96588.00;;;;5088304;28;20234;-66
2022/06/22 07:37:35;;;;;;;11.17;9.23;;;19.40;99.90;20.50;96591.00;;;;5089688;28;20582;-66
2022/06/22 07:40:28;;;;;;;10.13;8.60;;;19.40;99.90;20.60;96594.00;;;;5075777;28;20323;-67
2022/06/22 07:43:17;;;;;;;12.67;7.97;;;19.30;99.90;21.10;96589.00;;;;5080711;28;20200;-66
2022/06/22 07:46:09;;;;;;;12.20;8.23;;;19.30;99.90;21.40;96596.00;;;;5084236;28;20227;-66
2022/06/22 07:49:07;;;;;;;12.80;9.00;;;19.50;99.90;21.50;96610.00;;;;5088196;28;20195;-66
2022/06/22 07:52:01;;;;;;;11.10;8.40;;;19.60;99.90;21.60;96602.00;;;;5084139;28;20590;-67
2022/06/22 07:54:54;;;;;;;8.73;7.90;;;19.70;99.90;21.80;96606.00;;;;5077563;28;20241;-66
2022/06/22 07:57:54;;;;;;;7.07;6.27;;;19.80;99.90;22.00;96613.00;;;;5080992;28;20577;-66
2022/06/22 08:00:44;;;;;;;8.33;6.73;;;19.90;99.90;22.00;96611.00;;;;5085012;28;20191;-66
2022/06/22 08:03:39;;;;;;;9.40;7.80;;;20.00;99.90;21.50;96617.00;;;;5083745;28;20191;-66
2022/06/22 08:06:32;;;;;;;10.87;7.33;;;20.10;99.90;21.30;96617.00;;;;5087133;28;20214;-65
2022/06/22 08:09:27;;;;;;;9.10;7.40;;;19.80;99.90;21.30;96622.00;;;;5088447;28;20199;-66
2022/06/22 08:12:32;;;;;;;12.07;7.50;;;19.90;99.90;21.40;96620.00;;;;5088349;28;20670;-65
2022/06/22 08:15:23;;;;;;;16.03;9.17;;;19.90;99.90;21.40;96617.00;;;;5087678;28;20706;-66
2022/06/22 08:18:14;;;;;;;9.73;7.50;;;20.00;99.90;21.60;96617.00;;;;5088543;28;20238;-66
2022/06/22 08:21:05;;;;;;;12.40;9.20;;;19.80;99.90;21.70;96606.00;;;;5075662;28;20203;-66
2022/06/22 08:23:55;;;;;;;12.27;8.30;;;20.00;99.90;22.10;96605.00;;;;5089211;28;20207;-66
2022/06/22 08:26:44;;;;;;;17.00;8.33;;;20.00;99.90;22.00;96605.00;;;;5088995;28;20203;-66
2022/06/22 08:29:34;;;;;;;18.27;8.57;;;20.00;99.90;22.20;96611.00;;;;5079956;28;20574;-66
2022/06/22 08:32:31;;;;;;;13.17;9.40;;;20.20;99.90;22.40;96607.00;;;;5089102;28;20203;-66
2022/06/22 08:35:26;;;;;;;14.40;9.37;;;20.40;99.90;22.80;96597.00;;;;5087873;28;20306;-66
2022/06/22 08:38:22;;;;;;;12.43;8.13;;;20.50;99.90;22.60;96608.00;;;;5088702;28;20682;-66
2022/06/22 08:41:26;;;;;;;14.70;7.70;;;20.60;99.90;22.70;96599.00;;;;5090007;28;20210;-66
2022/06/22 08:44:39;;;;;;;9.57;7.80;;;20.60;99.90;23.00;96601.00;;;;5089876;28;20214;-66
2022/06/22 08:48:05;;;;;;;10.13;6.23;;;20.80;99.90;23.20;96624.00;;;;5088195;28;20199;-66
2022/06/22 08:51:26;;;;;;;7.20;6.53;;;20.90;99.90;23.10;96616.00;;;;5083361;28;20237;-66
2022/06/22 08:54:49;;;;;;;6.67;5.03;;;20.90;99.90;23.00;96606.00;;;;5080716;28;20707;-66
2022/06/22 08:57:59;;;;;;;10.93;6.40;;;21.00;99.90;22.90;96608.00;;;;5087977;28;20203;-66
2022/06/22 09:01:09;;;;;;;13.30;9.77;;;21.10;99.90;22.10;96609.00;;;;5086650;28;20243;-65
2022/06/22 09:04:44;;;;;;;15.10;8.20;;;21.00;99.90;22.10;96607.00;;;;5083097;28;20192;-66
2022/06/22 09:08:23;;;;;;;14.67;8.17;;;20.80;99.90;21.90;96610.00;;;;5062707;28;20226;-66
2022/06/22 09:11:28;;;;;;;14.53;8.27;;;20.70;99.90;22.20;96618.00;;;;5080515;28;20226;-66
2022/06/22 09:15:01;;;;;;;16.13;9.40;;;20.60;99.90;22.00;96621.00;;;;5080348;28;20222;-66
2022/06/22 09:18:27;;;;;;;11.70;8.03;;;20.60;99.90;21.70;96621.00;;;;5081503;28;20737;-66
2022/06/22 09:21:29;;;;;;;14.83;9.17;;;20.60;99.90;21.70;96632.00;;;;5084095;28;20210;-66
2022/06/22 09:24:23;;;;;;;11.60;8.50;;;20.50;99.90;21.80;96626.00;;;;5085427;28;20215;-66
2022/06/22 09:27:32;;;;;;;14.70;9.33;;;20.40;99.90;21.80;96621.00;;;;5083367;28;20580;-66
2022/06/22 09:31:00;;;;;;;18.80;9.50;;;20.40;99.90;22.00;96620.00;;;;5086262;28;20604;-66
2022/06/22 09:34:08;;;;;;;17.97;9.90;;;20.40;99.90;22.00;96616.00;;;;5083501;28;20210;-66
2022/06/22 09:37:33;;;;;;;14.53;9.37;;;20.40;99.90;22.50;96627.00;;;;5084534;28;20572;-67
2022/06/22 09:40:40;;;;;;;11.27;9.50;;;20.60;99.90;22.60;96644.00;;;;5088308;28;20196;-66
2022/06/22 09:44:17;;;;;;;15.20;9.13;;;20.60;99.90;22.70;96641.00;;;;5081849;28;20700;-66
2022/06/22 09:47:39;;;;;;;11.77;9.57;;;20.80;99.90;22.20;96633.00;;;;5078726;28;20205;-66
2022/06/22 09:51:09;;;;;;;16.27;10.60;;;20.80;99.90;22.50;96633.00;;;;5085646;28;20242;-66
2022/06/22 09:58:22;;;;;;;20.47;11.83;;;20.80;99.90;22.70;96631.00;;;;5084259;28;20570;-66
2022/06/22 10:01:26;;;;;;;16.80;11.93;;;20.90;99.90;22.60;96629.00;;;;5080695;28;20207;-66
2022/06/22 10:05:09;;;;;;;16.67;13.93;;;21.10;99.90;22.40;96627.00;;;;5090365;28;20226;-66
2022/06/22 10:08:17;;;;;;;19.77;14.03;;;21.10;99.90;22.70;96631.00;;;;5090916;28;20207;-66
2022/06/22 10:11:29;;;;;;;16.60;14.63;;;21.00;99.90;23.00;96625.00;;;;5085401;28;20721;-66
2022/06/22 10:15:18;;;;;;;20.50;13.50;;;21.10;99.90;23.50;96631.00;;;;5090599;28;20223;-66
2022/06/22 10:18:40;;;;;;;22.40;16.10;;;21.40;99.90;23.90;96602.00;;;;5082103;28;20191;-67
2022/06/22 10:21:45;;;;;;;17.17;13.10;;;21.50;99.90;24.20;96611.00;;;;5087396;28;20218;-66
2022/06/22 10:24:55;;;;;;;21.57;13.00;;;21.90;99.90;24.40;96600.00;;;;5089752;28;20219;-67
2022/06/22 10:28:16;;;;;;;12.63;10.30;;;21.90;99.90;24.60;96591.00;;;;5091495;28;20196;-67
2022/06/22 10:31:14;;;;;;;21.13;13.03;;;22.10;99.90;24.90;96590.00;;;;5071955;28;20230;-67
2022/06/22 10:34:38;;;;;;;17.03;10.47;;;22.60;99.90;25.00;96586.00;;;;5089237;28;20210;-66
2022/06/22 10:38:02;;;;;;;16.53;11.43;;;22.70;99.90;24.90;96591.00;;;;5089288;28;20819;-67
2022/06/22 10:45:09;;;;;;;18.30;11.60;;;22.80;99.90;24.80;96594.00;;;;5089403;28;20234;-67
2022/06/22 10:48:44;;;;;;;15.67;10.93;;;22.80;99.90;24.80;96605.00;;;;5083192;28;20222;-67
2022/06/22 10:52:02;;;;;;;17.33;10.53;;;22.80;99.90;24.60;96599.00;;;;5089743;28;20732;-66
2022/06/22 10:55:22;;;;;;;14.87;10.67;;;22.90;99.90;25.00;96593.00;;;;5091316;28;20716;-66
2022/06/22 10:58:39;;;;;;;15.43;10.17;;;22.70;99.90;25.00;96595.00;;;;5090720;28;20587;-67
2022/06/22 11:01:53;;;;;;;17.00;10.93;;;22.90;99.90;25.20;96593.00;;;;5089029;28;20199;-66
2022/06/22 11:05:09;;;;;;;20.37;11.40;;;22.90;99.90;25.30;96588.00;;;;5089877;28;20211;-66
2022/06/22 11:08:33;;;;;;;15.37;10.77;;;23.10;99.90;25.40;96586.00;;;;5075108;28;20203;-66
2022/06/22 11:11:43;;;;;;;18.47;10.93;;;23.20;99.90;25.40;96584.00;;;;5083688;28;20762;-66
2022/06/22 11:15:27;;;;;;;20.33;12.47;;;23.20;99.90;25.20;96580.00;;;;5086256;28;20227;-66
2022/06/22 11:18:39;;;;;;;13.30;10.73;;;23.30;99.90;25.30;96585.00;;;;4998462;28;20354;-66
2022/06/22 11:21:52;;;;;;;18.73;11.90;;;23.10;99.90;25.40;96583.00;;;;4998181;28;20230;-66
2022/06/22 11:32:51;;;;;;;13.07;11.07;;;23.40;99.90;25.70;96606.00;;;;5006966;28;20756;-66
2022/06/22 11:35:59;;;;;;;16.50;12.03;;;23.50;99.90;25.80;96608.00;;;;5008493;28;20616;-67
2022/06/22 11:39:23;;;;;;;19.17;12.63;;;23.60;99.90;26.10;96606.00;;;;5089697;28;20208;-66
2022/06/22 11:42:25;;;;;;;14.80;11.97;;;23.60;99.90;26.30;96609.00;;;;5088412;28;20231;-66
2022/06/22 11:49:14;;;;;;;14.40;11.40;;;24.00;99.90;25.20;96613.00;;;;5088774;28;20209;-66
2022/06/22 11:52:45;;;;;;;16.07;13.33;;;23.80;99.90;24.70;96614.00;;;;5087736;28;20231;-65
2022/06/22 11:55:39;;;;;;;18.50;12.30;;;23.50;99.90;25.00;96600.00;;;;5078396;28;20694;-66
2022/06/22 11:59:03;;;;;;;21.40;11.87;;;23.30;99.90;25.00;96601.00;;;;5087026;28;20689;-65
2022/06/22 12:02:34;;;;;;;16.70;12.03;;;23.30;99.90;24.50;96602.00;;;;5076165;28;20201;-66
2022/06/22 12:05:49;;;;;;;13.97;11.67;;;23.20;99.90;24.00;96598.00;;;;5073885;28;20235;-66
2022/06/22 12:08:57;;;;;;;14.67;11.47;;;22.90;99.90;23.40;96603.00;;;;5075140;28;20195;-66
2022/06/22 12:12:07;;;;;;;14.63;11.90;;;22.60;99.90;23.60;96613.00;;;;5075505;28;20231;-65
2022/06/22 12:15:09;;;;;;;13.37;11.43;;;22.40;99.90;23.70;96611.00;;;;5071686;28;20224;-66
2022/06/22 12:18:24;;;;;;;15.10;12.33;;;22.40;99.90;23.60;96602.00;;;;5075887;28;20240;-66
2022/06/22 12:21:41;;;;;;;13.57;12.17;;;22.30;99.90;24.00;96612.00;;;;5076041;28;20210;-66
2022/06/22 12:24:45;;;;;;;13.57;12.27;;;22.40;99.90;23.80;96613.00;;;;5080909;28;20219;-65
2022/06/22 12:27:40;;;;;;;12.83;11.53;;;22.20;99.90;23.70;96612.00;;;;5075570;28;20207;-66
2022/06/22 12:30:45;;;;;;;15.30;11.87;;;22.30;99.90;24.00;96613.00;;;;5077713;28;20207;-66
2022/06/22 12:33:38;;;;;;;14.23;11.63;;;22.30;99.90;24.10;96607.00;;;;5072669;28;20753;-65
2022/06/22 12:36:33;;;;;;;12.87;11.57;;;22.30;99.90;24.10;96598.00;;;;5068671;28;20204;-66
2022/06/22 12:39:27;;;;;;;13.60;11.47;;;22.40;99.90;23.80;96598.00;;;;5079154;28;20214;-66
2022/06/22 12:42:46;;;;;;;18.00;12.83;;;22.20;99.90;24.00;96592.00;;;;5069422;28;20234;-65
2022/06/22 12:45:54;;;;;;;15.37;11.20;;;22.10;99.90;24.10;96583.00;;;;5072015;28;21179;-66
2022/06/22 12:49:29;;;;;;;15.73;12.43;;;22.10;99.90;24.00;96582.00;;;;5073854;28;20562;-65
2022/06/22 13:05:36;;;;;;;12.87;9.23;;;21.50;99.90;22.60;96635.00;;;;5080564;28;20950;-67
2022/06/22 13:08:28;;;;;;;11.93;10.23;;;20.80;99.90;22.70;96619.00;;;;5076150;28;20226;-67
2022/06/22 13:11:21;;;;;;;11.60;10.40;;;21.80;99.90;22.70;96617.00;;;;5083165;28;20487;-67
2022/06/22 13:14:25;;;;;;;11.87;10.57;;;21.20;99.90;22.20;96611.00;;;;5076604;28;20219;-67
2022/06/22 13:17:29;;;;;;;14.00;10.57;;;21.10;99.90;22.40;96587.00;;;;5079645;28;20669;-66
2022/06/22 13:20:44;;;;;;;14.07;10.70;;;21.00;99.90;22.20;96584.00;;;;5080402;28;20217;-66
2022/06/22 13:23:45;;;;;;;12.23;10.20;;;20.90;99.90;22.30;96599.00;;;;5077703;28;20208;-66
2022/06/22 13:26:48;;;;;;;15.80;10.43;;;20.70;99.90;22.20;96599.00;;;;5083419;28;20202;-66
2022/06/22 13:29:46;;;;;;;14.03;10.57;;;20.80;99.90;22.20;96596.00;;;;5072615;28;20207;-66
2022/06/22 13:36:55;;;;;;;13.47;11.70;;;20.50;99.90;22.00;96572.00;;;;5080457;28;20212;-66
2022/06/22 13:40:09;;;;;;;14.97;12.97;;;20.60;99.90;22.20;96563.00;;;;5079555;28;20202;-66
2022/06/22 13:52:14;;;;;;;16.50;13.40;;;20.40;99.90;22.30;96532.00;;;;5067639;28;20284;-66
2022/06/22 13:55:24;;;;;;;14.97;13.33;;;20.60;99.90;22.50;96517.00;;;;5076149;28;20219;-66
2022/06/22 13:58:19;;;;;;;17.87;13.67;;;20.50;99.90;22.60;96511.00;;;;5076533;28;20199;-66
2022/06/22 14:01:17;;;;;;;15.30;13.80;;;20.70;99.90;22.20;96515.00;;;;5078155;28;20226;-66
2022/06/22 14:04:14;;;;;;;14.90;13.33;;;20.80;99.90;21.70;96501.00;;;;5080587;28;20753;-67
2022/06/22 14:07:14;;;;;;;17.40;14.23;;;20.60;99.90;21.80;96484.00;;;;5079658;28;21349;-67